sensor_id;sensor_type;location;lat;lon;timestamp;P1;durP1;ratioP1;P2;durP2;ratioP2
77612;SDS011;66777;52.282;5.960;2023-01-09T00:00:16;8.55;;;2.42;;
77612;SDS011;66777;52.282;5.960;2023-01-09T00:02:43;7.35;;;1.73;;
77612;SDS011;66777;52.282;5.960;2023-01-09T00:05:10;8.55;;;2.08;;
77612;SDS011;66777;52.282;5.960;2023-01-09T00:07:37;10.00;;;2.17;;
77612;SDS011;66777;52.282;5.960;2023-01-09T00:10:03;8.07;;;1.92;;
77612;SDS011;66777;52.282;5.960;2023-01-09T00:12:30;13.02;;;2.10;;
77612;SDS011;66777;52.282;5.960;2023-01-09T00:14:56;6.88;;;2.03;;
77612;SDS011;66777;52.282;5.960;2023-01-09T00:17:22;5.90;;;1.85;;
77612;SDS011;66777;52.282;5.960;2023-01-09T00:19:48;5.55;;;1.52;;
77612;SDS011;66777;52.282;5.960;2023-01-09T00:22:14;4.57;;;1.80;;
77612;SDS011;66777;52.282;5.960;2023-01-09T00:24:39;8.50;;;2.20;;
77612;SDS011;66777;52.282;5.960;2023-01-09T00:27:05;6.35;;;1.60;;
77612;SDS011;66777;52.282;5.960;2023-01-09T00:29:31;5.25;;;1.42;;
77612;SDS011;66777;52.282;5.960;2023-01-09T00:31:57;8.07;;;1.75;;
77612;SDS011;66777;52.282;5.960;2023-01-09T00:34:22;7.05;;;1.88;;
77612;SDS011;66777;52.282;5.960;2023-01-09T00:36:48;4.32;;;1.42;;
77612;SDS011;66777;52.282;5.960;2023-01-09T00:39:19;5.63;;;1.73;;
77612;SDS011;66777;52.282;5.960;2023-01-09T00:41:46;4.50;;;1.52;;
77612;SDS011;66777;52.282;5.960;2023-01-09T00:44:18;6.80;;;1.52;;
77612;SDS011;66777;52.282;5.960;2023-01-09T00:46:51;4.75;;;1.30;;
77612;SDS011;66777;52.282;5.960;2023-01-09T00:49:20;4.95;;;1.40;;
77612;SDS011;66777;52.282;5.960;2023-01-09T00:51:46;4.57;;;1.33;;
77612;SDS011;66777;52.282;5.960;2023-01-09T00:54:13;6.47;;;1.55;;
77612;SDS011;66777;52.282;5.960;2023-01-09T00:56:41;6.57;;;1.50;;
77612;SDS011;66777;52.282;5.960;2023-01-09T00:59:07;8.35;;;1.50;;
77612;SDS011;66777;52.282;5.960;2023-01-09T01:01:32;7.32;;;1.60;;
77612;SDS011;66777;52.282;5.960;2023-01-09T01:03:58;5.82;;;1.50;;
77612;SDS011;66777;52.282;5.960;2023-01-09T01:06:44;6.18;;;1.75;;
77612;SDS011;66777;52.282;5.960;2023-01-09T01:09:28;5.47;;;1.60;;
77612;SDS011;66777;52.282;5.960;2023-01-09T01:11:53;6.05;;;1.80;;
77612;SDS011;66777;52.282;5.960;2023-01-09T01:14:19;8.05;;;1.77;;
77612;SDS011;66777;52.282;5.960;2023-01-09T01:16:44;5.18;;;1.77;;
77612;SDS011;66777;52.282;5.960;2023-01-09T01:19:10;6.65;;;1.83;;
77612;SDS011;66777;52.282;5.960;2023-01-09T01:21:36;6.30;;;1.52;;
77612;SDS011;66777;52.282;5.960;2023-01-09T01:24:02;5.03;;;1.67;;
77612;SDS011;66777;52.282;5.960;2023-01-09T01:26:28;5.75;;;1.85;;
77612;SDS011;66777;52.282;5.960;2023-01-09T01:28:54;6.78;;;1.90;;
77612;SDS011;66777;52.282;5.960;2023-01-09T01:31:19;7.43;;;2.05;;
77612;SDS011;66777;52.282;5.960;2023-01-09T01:33:45;6.00;;;1.55;;
77612;SDS011;66777;52.282;5.960;2023-01-09T01:36:10;10.77;;;2.15;;
77612;SDS011;66777;52.282;5.960;2023-01-09T01:38:36;5.53;;;1.80;;
77612;SDS011;66777;52.282;5.960;2023-01-09T01:41:02;6.90;;;2.00;;
77612;SDS011;66777;52.282;5.960;2023-01-09T01:46:19;5.75;;;1.88;;
77612;SDS011;66777;52.282;5.960;2023-01-09T01:48:45;6.78;;;1.58;;
77612;SDS011;66777;52.282;5.960;2023-01-09T01:51:12;6.80;;;1.88;;
77612;SDS011;66777;52.282;5.960;2023-01-09T01:53:42;7.50;;;2.03;;
77612;SDS011;66777;52.282;5.960;2023-01-09T01:56:16;8.73;;;1.85;;
77612;SDS011;66777;52.282;5.960;2023-01-09T01:58:43;7.18;;;1.52;;
77612;SDS011;66777;52.282;5.960;2023-01-09T02:01:31;8.13;;;2.40;;
77612;SDS011;66777;52.282;5.960;2023-01-09T02:03:58;10.93;;;2.53;;
77612;SDS011;66777;52.282;5.960;2023-01-09T02:06:26;5.65;;;2.15;;
77612;SDS011;66777;52.282;5.960;2023-01-09T02:08:53;10.40;;;2.58;;
77612;SDS011;66777;52.282;5.960;2023-01-09T02:11:19;7.40;;;2.30;;
77612;SDS011;66777;52.282;5.960;2023-01-09T02:13:45;6.90;;;2.30;;
77612;SDS011;66777;52.282;5.960;2023-01-09T02:16:25;10.77;;;2.75;;
77612;SDS011;66777;52.282;5.960;2023-01-09T02:27:18;8.95;;;3.03;;
77612;SDS011;66777;52.282;5.960;2023-01-09T02:30:14;9.82;;;3.30;;
77612;SDS011;66777;52.282;5.960;2023-01-09T02:41:26;17.05;;;6.05;;
77612;SDS011;66777;52.282;5.960;2023-01-09T02:44:01;14.95;;;5.93;;
77612;SDS011;66777;52.282;5.960;2023-01-09T02:46:46;18.52;;;5.82;;
77612;SDS011;66777;52.282;5.960;2023-01-09T02:49:23;22.50;;;6.93;;
77612;SDS011;66777;52.282;5.960;2023-01-09T02:51:50;23.98;;;7.25;;
77612;SDS011;66777;52.282;5.960;2023-01-09T02:57:13;32.67;;;9.77;;
77612;SDS011;66777;52.282;5.960;2023-01-09T02:59:49;27.85;;;8.45;;
77612;SDS011;66777;52.282;5.960;2023-01-09T03:02:42;17.17;;;7.28;;
77612;SDS011;66777;52.282;5.960;2023-01-09T03:05:29;20.67;;;7.32;;
77612;SDS011;66777;52.282;5.960;2023-01-09T03:07:59;21.73;;;8.30;;
77612;SDS011;66777;52.282;5.960;2023-01-09T03:10:36;26.83;;;9.52;;
77612;SDS011;66777;52.282;5.960;2023-01-09T03:13:10;21.15;;;7.00;;
77612;SDS011;66777;52.282;5.960;2023-01-09T03:15:40;25.02;;;7.18;;
77612;SDS011;66777;52.282;5.960;2023-01-09T03:18:09;16.40;;;6.05;;
77612;SDS011;66777;52.282;5.960;2023-01-09T03:20:37;19.90;;;6.72;;
77612;SDS011;66777;52.282;5.960;2023-01-09T03:23:05;20.45;;;6.85;;
77612;SDS011;66777;52.282;5.960;2023-01-09T03:25:32;23.95;;;7.10;;
77612;SDS011;66777;52.282;5.960;2023-01-09T03:27:59;20.35;;;6.82;;
77612;SDS011;66777;52.282;5.960;2023-01-09T03:30:27;25.20;;;7.68;;
77612;SDS011;66777;52.282;5.960;2023-01-09T03:32:54;19.35;;;6.88;;
77612;SDS011;66777;52.282;5.960;2023-01-09T03:35:20;20.65;;;7.07;;
77612;SDS011;66777;52.282;5.960;2023-01-09T03:37:47;17.08;;;6.72;;
77612;SDS011;66777;52.282;5.960;2023-01-09T03:40:12;18.75;;;6.30;;
77612;SDS011;66777;52.282;5.960;2023-01-09T03:42:38;20.48;;;6.25;;
77612;SDS011;66777;52.282;5.960;2023-01-09T03:45:04;17.77;;;6.25;;
77612;SDS011;66777;52.282;5.960;2023-01-09T03:47:30;17.08;;;6.13;;
77612;SDS011;66777;52.282;5.960;2023-01-09T03:49:56;17.95;;;6.18;;
77612;SDS011;66777;52.282;5.960;2023-01-09T03:52:21;17.27;;;5.88;;
77612;SDS011;66777;52.282;5.960;2023-01-09T03:54:47;13.55;;;6.28;;
77612;SDS011;66777;52.282;5.960;2023-01-09T03:57:13;15.75;;;6.75;;
77612;SDS011;66777;52.282;5.960;2023-01-09T03:59:39;19.08;;;6.07;;
77612;SDS011;66777;52.282;5.960;2023-01-09T04:02:04;12.82;;;5.47;;
77612;SDS011;66777;52.282;5.960;2023-01-09T04:04:30;15.82;;;6.20;;
77612;SDS011;66777;52.282;5.960;2023-01-09T04:06:56;19.63;;;6.35;;
77612;SDS011;66777;52.282;5.960;2023-01-09T04:09:22;20.33;;;6.10;;
77612;SDS011;66777;52.282;5.960;2023-01-09T04:11:47;18.73;;;5.80;;
77612;SDS011;66777;52.282;5.960;2023-01-09T04:14:13;17.30;;;5.47;;
77612;SDS011;66777;52.282;5.960;2023-01-09T04:16:39;13.38;;;5.53;;
77612;SDS011;66777;52.282;5.960;2023-01-09T04:19:04;15.77;;;5.07;;
77612;SDS011;66777;52.282;5.960;2023-01-09T04:21:30;17.30;;;5.30;;
77612;SDS011;66777;52.282;5.960;2023-01-09T04:23:55;19.70;;;6.18;;
77612;SDS011;66777;52.282;5.960;2023-01-09T04:26:21;15.43;;;6.25;;
77612;SDS011;66777;52.282;5.960;2023-01-09T04:28:47;18.67;;;5.50;;
77612;SDS011;66777;52.282;5.960;2023-01-09T04:31:12;14.50;;;5.30;;
77612;SDS011;66777;52.282;5.960;2023-01-09T04:33:38;15.32;;;5.03;;
77612;SDS011;66777;52.282;5.960;2023-01-09T04:36:04;15.93;;;5.47;;
77612;SDS011;66777;52.282;5.960;2023-01-09T04:38:30;11.95;;;4.72;;
77612;SDS011;66777;52.282;5.960;2023-01-09T04:40:56;17.55;;;5.88;;
77612;SDS011;66777;52.282;5.960;2023-01-09T04:43:22;15.20;;;4.88;;
77612;SDS011;66777;52.282;5.960;2023-01-09T04:45:47;18.52;;;5.10;;
77612;SDS011;66777;52.282;5.960;2023-01-09T04:48:13;11.77;;;4.00;;
77612;SDS011;66777;52.282;5.960;2023-01-09T04:50:38;11.70;;;4.25;;
77612;SDS011;66777;52.282;5.960;2023-01-09T04:53:04;13.30;;;4.65;;
77612;SDS011;66777;52.282;5.960;2023-01-09T04:55:30;13.60;;;3.92;;
77612;SDS011;66777;52.282;5.960;2023-01-09T04:57:56;12.65;;;4.13;;
77612;SDS011;66777;52.282;5.960;2023-01-09T05:00:22;9.73;;;3.05;;
77612;SDS011;66777;52.282;5.960;2023-01-09T05:02:48;16.55;;;4.03;;
77612;SDS011;66777;52.282;5.960;2023-01-09T05:05:13;9.80;;;3.85;;
77612;SDS011;66777;52.282;5.960;2023-01-09T05:07:39;9.90;;;3.22;;
77612;SDS011;66777;52.282;5.960;2023-01-09T05:10:05;13.52;;;3.70;;
77612;SDS011;66777;52.282;5.960;2023-01-09T05:12:31;10.60;;;3.13;;
77612;SDS011;66777;52.282;5.960;2023-01-09T05:14:58;9.85;;;2.90;;
77612;SDS011;66777;52.282;5.960;2023-01-09T05:17:24;14.57;;;4.15;;
77612;SDS011;66777;52.282;5.960;2023-01-09T05:19:50;11.45;;;4.13;;
77612;SDS011;66777;52.282;5.960;2023-01-09T05:22:15;10.40;;;2.97;;
77612;SDS011;66777;52.282;5.960;2023-01-09T05:24:41;9.65;;;3.47;;
77612;SDS011;66777;52.282;5.960;2023-01-09T05:27:06;10.40;;;3.17;;
77612;SDS011;66777;52.282;5.960;2023-01-09T05:29:32;13.20;;;2.83;;
77612;SDS011;66777;52.282;5.960;2023-01-09T05:31:58;9.30;;;2.85;;
77612;SDS011;66777;52.282;5.960;2023-01-09T05:34:23;10.77;;;3.03;;
77612;SDS011;66777;52.282;5.960;2023-01-09T05:36:49;11.00;;;3.38;;
77612;SDS011;66777;52.282;5.960;2023-01-09T05:39:15;13.77;;;3.15;;
77612;SDS011;66777;52.282;5.960;2023-01-09T05:41:40;10.75;;;3.15;;
77612;SDS011;66777;52.282;5.960;2023-01-09T05:44:06;7.97;;;2.58;;
77612;SDS011;66777;52.282;5.960;2023-01-09T05:46:32;8.43;;;2.63;;
77612;SDS011;66777;52.282;5.960;2023-01-09T05:48:57;12.65;;;3.28;;
77612;SDS011;66777;52.282;5.960;2023-01-09T05:51:23;10.82;;;3.28;;
77612;SDS011;66777;52.282;5.960;2023-01-09T05:53:49;11.75;;;3.55;;
77612;SDS011;66777;52.282;5.960;2023-01-09T05:56:14;7.80;;;2.88;;
77612;SDS011;66777;52.282;5.960;2023-01-09T05:58:40;9.13;;;2.90;;
77612;SDS011;66777;52.282;5.960;2023-01-09T06:01:05;13.18;;;3.55;;
77612;SDS011;66777;52.282;5.960;2023-01-09T06:03:31;9.35;;;2.78;;
77612;SDS011;66777;52.282;5.960;2023-01-09T06:05:57;15.25;;;3.50;;
77612;SDS011;66777;52.282;5.960;2023-01-09T06:08:22;10.80;;;3.30;;
77612;SDS011;66777;52.282;5.960;2023-01-09T06:10:48;12.40;;;3.67;;
77612;SDS011;66777;52.282;5.960;2023-01-09T06:13:13;12.82;;;3.65;;
77612;SDS011;66777;52.282;5.960;2023-01-09T06:15:39;15.27;;;3.60;;
77612;SDS011;66777;52.282;5.960;2023-01-09T06:18:05;9.88;;;2.97;;
77612;SDS011;66777;52.282;5.960;2023-01-09T06:20:31;12.20;;;3.53;;
77612;SDS011;66777;52.282;5.960;2023-01-09T06:22:57;9.88;;;3.28;;
77612;SDS011;66777;52.282;5.960;2023-01-09T06:25:22;15.13;;;3.67;;
77612;SDS011;66777;52.282;5.960;2023-01-09T06:27:48;13.02;;;3.03;;
77612;SDS011;66777;52.282;5.960;2023-01-09T06:30:16;10.77;;;3.40;;
77612;SDS011;66777;52.282;5.960;2023-01-09T06:32:42;13.15;;;3.25;;
77612;SDS011;66777;52.282;5.960;2023-01-09T06:35:08;9.57;;;2.58;;
77612;SDS011;66777;52.282;5.960;2023-01-09T06:37:34;10.23;;;3.08;;
77612;SDS011;66777;52.282;5.960;2023-01-09T06:40:00;14.60;;;3.33;;
77612;SDS011;66777;52.282;5.960;2023-01-09T06:42:25;15.15;;;3.25;;
77612;SDS011;66777;52.282;5.960;2023-01-09T06:44:51;7.82;;;2.53;;
77612;SDS011;66777;52.282;5.960;2023-01-09T06:47:17;9.55;;;3.00;;
77612;SDS011;66777;52.282;5.960;2023-01-09T06:49:42;12.27;;;3.00;;
77612;SDS011;66777;52.282;5.960;2023-01-09T06:52:08;6.85;;;2.22;;
77612;SDS011;66777;52.282;5.960;2023-01-09T06:54:33;11.52;;;2.22;;
77612;SDS011;66777;52.282;5.960;2023-01-09T06:56:59;8.50;;;2.38;;
77612;SDS011;66777;52.282;5.960;2023-01-09T06:59:25;11.57;;;3.47;;
77612;SDS011;66777;52.282;5.960;2023-01-09T07:01:51;12.32;;;2.92;;
77612;SDS011;66777;52.282;5.960;2023-01-09T07:04:18;12.20;;;2.70;;
77612;SDS011;66777;52.282;5.960;2023-01-09T07:06:46;7.85;;;2.60;;
77612;SDS011;66777;52.282;5.960;2023-01-09T07:09:13;7.53;;;2.45;;
77612;SDS011;66777;52.282;5.960;2023-01-09T07:11:39;12.48;;;2.53;;
77612;SDS011;66777;52.282;5.960;2023-01-09T07:14:05;11.18;;;2.67;;
77612;SDS011;66777;52.282;5.960;2023-01-09T07:16:31;8.88;;;2.17;;
77612;SDS011;66777;52.282;5.960;2023-01-09T07:18:57;12.23;;;2.83;;
77612;SDS011;66777;52.282;5.960;2023-01-09T07:21:23;13.70;;;2.80;;
77612;SDS011;66777;52.282;5.960;2023-01-09T07:23:48;8.98;;;2.45;;
77612;SDS011;66777;52.282;5.960;2023-01-09T07:26:14;8.95;;;2.35;;
77612;SDS011;66777;52.282;5.960;2023-01-09T07:28:40;11.65;;;2.58;;
77612;SDS011;66777;52.282;5.960;2023-01-09T07:31:05;11.63;;;2.53;;
77612;SDS011;66777;52.282;5.960;2023-01-09T07:33:31;7.30;;;2.00;;
77612;SDS011;66777;52.282;5.960;2023-01-09T07:35:58;7.88;;;2.33;;
77612;SDS011;66777;52.282;5.960;2023-01-09T07:38:23;8.25;;;2.35;;
77612;SDS011;66777;52.282;5.960;2023-01-09T07:40:50;11.13;;;2.33;;
77612;SDS011;66777;52.282;5.960;2023-01-09T07:43:15;10.43;;;2.70;;
77612;SDS011;66777;52.282;5.960;2023-01-09T07:45:41;8.98;;;2.15;;
77612;SDS011;66777;52.282;5.960;2023-01-09T07:48:06;9.40;;;2.35;;
77612;SDS011;66777;52.282;5.960;2023-01-09T07:50:32;11.50;;;2.38;;
77612;SDS011;66777;52.282;5.960;2023-01-09T07:52:58;10.57;;;3.10;;
77612;SDS011;66777;52.282;5.960;2023-01-09T07:55:23;12.63;;;2.65;;
77612;SDS011;66777;52.282;5.960;2023-01-09T07:57:49;14.60;;;3.10;;
77612;SDS011;66777;52.282;5.960;2023-01-09T08:00:15;18.85;;;2.95;;
77612;SDS011;66777;52.282;5.960;2023-01-09T08:02:42;21.45;;;3.60;;
77612;SDS011;66777;52.282;5.960;2023-01-09T08:05:07;17.33;;;2.72;;
77612;SDS011;66777;52.282;5.960;2023-01-09T08:07:37;8.88;;;2.72;;
77612;SDS011;66777;52.282;5.960;2023-01-09T08:10:03;8.27;;;2.13;;
77612;SDS011;66777;52.282;5.960;2023-01-09T08:12:29;16.35;;;3.33;;
77612;SDS011;66777;52.282;5.960;2023-01-09T08:14:54;9.27;;;2.33;;
77612;SDS011;66777;52.282;5.960;2023-01-09T08:17:20;12.57;;;2.92;;
77612;SDS011;66777;52.282;5.960;2023-01-09T08:19:48;10.82;;;2.15;;
77612;SDS011;66777;52.282;5.960;2023-01-09T08:22:14;8.52;;;2.53;;
77612;SDS011;66777;52.282;5.960;2023-01-09T08:24:43;10.20;;;2.33;;
77612;SDS011;66777;52.282;5.960;2023-01-09T08:27:11;23.60;;;5.85;;
77612;SDS011;66777;52.282;5.960;2023-01-09T08:29:37;12.65;;;2.85;;
77612;SDS011;66777;52.282;5.960;2023-01-09T08:32:02;13.25;;;3.17;;
77612;SDS011;66777;52.282;5.960;2023-01-09T08:34:28;13.98;;;3.88;;
77612;SDS011;66777;52.282;5.960;2023-01-09T08:36:54;13.38;;;2.83;;
77612;SDS011;66777;52.282;5.960;2023-01-09T08:39:20;14.63;;;3.10;;
77612;SDS011;66777;52.282;5.960;2023-01-09T08:41:45;12.75;;;3.53;;
77612;SDS011;66777;52.282;5.960;2023-01-09T08:44:29;10.57;;;2.85;;
77612;SDS011;66777;52.282;5.960;2023-01-09T08:47:14;6.78;;;2.25;;
77612;SDS011;66777;52.282;5.960;2023-01-09T08:49:42;9.85;;;3.03;;
77612;SDS011;66777;52.282;5.960;2023-01-09T08:52:08;11.18;;;2.95;;
77612;SDS011;66777;52.282;5.960;2023-01-09T08:54:33;12.18;;;3.15;;
77612;SDS011;66777;52.282;5.960;2023-01-09T08:57:02;10.15;;;3.13;;
77612;SDS011;66777;52.282;5.960;2023-01-09T08:59:28;10.82;;;2.80;;
77612;SDS011;66777;52.282;5.960;2023-01-09T09:01:54;9.60;;;2.90;;
77612;SDS011;66777;52.282;5.960;2023-01-09T09:04:19;13.85;;;2.95;;
77612;SDS011;66777;52.282;5.960;2023-01-09T09:06:45;8.30;;;2.85;;
77612;SDS011;66777;52.282;5.960;2023-01-09T09:09:11;15.25;;;2.80;;
77612;SDS011;66777;52.282;5.960;2023-01-09T09:11:36;8.05;;;2.53;;
77612;SDS011;66777;52.282;5.960;2023-01-09T09:14:02;12.90;;;2.55;;
77612;SDS011;66777;52.282;5.960;2023-01-09T09:16:47;8.52;;;2.50;;
77612;SDS011;66777;52.282;5.960;2023-01-09T09:19:13;13.00;;;2.72;;
77612;SDS011;66777;52.282;5.960;2023-01-09T09:21:39;8.52;;;2.85;;
77612;SDS011;66777;52.282;5.960;2023-01-09T09:24:04;12.80;;;2.95;;
77612;SDS011;66777;52.282;5.960;2023-01-09T09:26:30;11.27;;;2.92;;
77612;SDS011;66777;52.282;5.960;2023-01-09T09:28:56;11.20;;;2.90;;
77612;SDS011;66777;52.282;5.960;2023-01-09T09:31:22;9.75;;;2.80;;
77612;SDS011;66777;52.282;5.960;2023-01-09T09:33:48;7.35;;;2.35;;
77612;SDS011;66777;52.282;5.960;2023-01-09T09:36:14;12.35;;;2.45;;
77612;SDS011;66777;52.282;5.960;2023-01-09T09:38:39;12.98;;;3.65;;
77612;SDS011;66777;52.282;5.960;2023-01-09T09:41:11;10.07;;;2.47;;
77612;SDS011;66777;52.282;5.960;2023-01-09T09:44:34;17.30;;;3.30;;
77612;SDS011;66777;52.282;5.960;2023-01-09T09:47:39;11.27;;;2.95;;
77612;SDS011;66777;52.282;5.960;2023-01-09T09:50:44;17.88;;;5.60;;
77612;SDS011;66777;52.282;5.960;2023-01-09T09:54:24;17.23;;;4.57;;
77612;SDS011;66777;52.282;5.960;2023-01-09T09:56:26;21.73;;;4.68;;
77612;SDS011;66777;52.282;5.960;2023-01-09T09:58:57;17.77;;;4.18;;
77612;SDS011;66777;52.282;5.960;2023-01-09T10:01:35;19.60;;;5.22;;
77612;SDS011;66777;52.282;5.960;2023-01-09T10:04:06;16.88;;;4.82;;
77612;SDS011;66777;52.282;5.960;2023-01-09T10:06:39;18.52;;;5.05;;
77612;SDS011;66777;52.282;5.960;2023-01-09T10:09:21;21.40;;;5.15;;
77612;SDS011;66777;52.282;5.960;2023-01-09T10:12:02;29.83;;;7.05;;
77612;SDS011;66777;52.282;5.960;2023-01-09T10:14:52;18.98;;;5.45;;
77612;SDS011;66777;52.282;5.960;2023-01-09T10:17:29;20.70;;;5.13;;
77612;SDS011;66777;52.282;5.960;2023-01-09T10:23:10;21.33;;;4.97;;
77612;SDS011;66777;52.282;5.960;2023-01-09T10:25:52;24.45;;;5.25;;
77612;SDS011;66777;52.282;5.960;2023-01-09T10:31:15;16.63;;;3.83;;
77612;SDS011;66777;52.282;5.960;2023-01-09T10:33:59;15.13;;;3.50;;
77612;SDS011;66777;52.282;5.960;2023-01-09T10:39:22;10.90;;;3.22;;
77612;SDS011;66777;52.282;5.960;2023-01-09T10:41:58;18.42;;;2.83;;
77612;SDS011;66777;52.282;5.960;2023-01-09T10:45:28;11.10;;;2.78;;
77612;SDS011;66777;52.282;5.960;2023-01-09T10:47:34;5.38;;;1.60;;
77612;SDS011;66777;52.282;5.960;2023-01-09T10:50:14;6.97;;;1.85;;
77612;SDS011;66777;52.282;5.960;2023-01-09T10:52:42;6.63;;;1.70;;
77612;SDS011;66777;52.282;5.960;2023-01-09T10:55:14;7.05;;;1.77;;
77612;SDS011;66777;52.282;5.960;2023-01-09T10:57:48;5.00;;;1.55;;
77612;SDS011;66777;52.282;5.960;2023-01-09T11:00:22;7.97;;;1.45;;
77612;SDS011;66777;52.282;5.960;2023-01-09T11:02:49;10.00;;;1.90;;
77612;SDS011;66777;52.282;5.960;2023-01-09T11:05:23;4.95;;;1.38;;
77612;SDS011;66777;52.282;5.960;2023-01-09T11:07:56;5.07;;;1.60;;
77612;SDS011;66777;52.282;5.960;2023-01-09T11:10:43;18.00;;;1.70;;
77612;SDS011;66777;52.282;5.960;2023-01-09T11:13:22;7.00;;;1.55;;
77612;SDS011;66777;52.282;5.960;2023-01-09T11:16:35;12.13;;;1.60;;
77612;SDS011;66777;52.282;5.960;2023-01-09T11:18:54;5.90;;;1.60;;
77612;SDS011;66777;52.282;5.960;2023-01-09T11:21:38;11.18;;;1.98;;
77612;SDS011;66777;52.282;5.960;2023-01-09T11:26:44;12.60;;;2.00;;
77612;SDS011;66777;52.282;5.960;2023-01-09T11:29:12;9.88;;;2.00;;
77612;SDS011;66777;52.282;5.960;2023-01-09T11:31:40;13.98;;;2.20;;
77612;SDS011;66777;52.282;5.960;2023-01-09T11:34:16;12.32;;;1.73;;
77612;SDS011;66777;52.282;5.960;2023-01-09T11:36:44;12.13;;;2.17;;
77612;SDS011;66777;52.282;5.960;2023-01-09T11:39:24;15.65;;;3.58;;
77612;SDS011;66777;52.282;5.960;2023-01-09T11:41:53;12.20;;;2.58;;
77612;SDS011;66777;52.282;5.960;2023-01-09T11:44:21;8.55;;;2.20;;
77612;SDS011;66777;52.282;5.960;2023-01-09T11:46:47;11.93;;;3.15;;
77612;SDS011;66777;52.282;5.960;2023-01-09T11:51:42;18.50;;;3.08;;
77612;SDS011;66777;52.282;5.960;2023-01-09T11:56:51;11.25;;;2.38;;
77612;SDS011;66777;52.282;5.960;2023-01-09T11:59:21;15.30;;;2.90;;
77612;SDS011;66777;52.282;5.960;2023-01-09T12:04:59;12.85;;;3.17;;
77612;SDS011;66777;52.282;5.960;2023-01-09T12:07:54;13.00;;;3.10;;
77612;SDS011;66777;52.282;5.960;2023-01-09T12:13:38;15.05;;;2.47;;
77612;SDS011;66777;52.282;5.960;2023-01-09T12:19:08;14.52;;;2.28;;
77612;SDS011;66777;52.282;5.960;2023-01-09T12:22:07;5.45;;;1.90;;
77612;SDS011;66777;52.282;5.960;2023-01-09T12:41:19;10.50;;;2.47;;
77612;SDS011;66777;52.282;5.960;2023-01-09T12:44:03;9.18;;;2.10;;
77612;SDS011;66777;52.282;5.960;2023-01-09T12:46:46;10.27;;;2.05;;
77612;SDS011;66777;52.282;5.960;2023-01-09T12:49:49;14.23;;;2.90;;
77612;SDS011;66777;52.282;5.960;2023-01-09T12:52:27;13.80;;;2.50;;
77612;SDS011;66777;52.282;5.960;2023-01-09T12:55:17;9.35;;;2.28;;
77612;SDS011;66777;52.282;5.960;2023-01-09T12:57:49;12.13;;;2.55;;
77612;SDS011;66777;52.282;5.960;2023-01-09T13:02:56;11.90;;;2.75;;
77612;SDS011;66777;52.282;5.960;2023-01-09T13:05:28;13.38;;;2.75;;
77612;SDS011;66777;52.282;5.960;2023-01-09T13:08:17;9.98;;;2.38;;
77612;SDS011;66777;52.282;5.960;2023-01-09T13:10:56;13.65;;;2.67;;
77612;SDS011;66777;52.282;5.960;2023-01-09T13:13:35;20.13;;;2.90;;
77612;SDS011;66777;52.282;5.960;2023-01-09T13:16:16;18.90;;;2.40;;
77612;SDS011;66777;52.282;5.960;2023-01-09T13:18:59;14.05;;;3.00;;
77612;SDS011;66777;52.282;5.960;2023-01-09T13:21:31;14.55;;;3.15;;
77612;SDS011;66777;52.282;5.960;2023-01-09T13:24:01;15.82;;;3.30;;
77612;SDS011;66777;52.282;5.960;2023-01-09T13:26:40;14.75;;;3.63;;
77612;SDS011;66777;52.282;5.960;2023-01-09T13:29:18;13.65;;;3.20;;
77612;SDS011;66777;52.282;5.960;2023-01-09T13:34:22;7.50;;;2.10;;
77612;SDS011;66777;52.282;5.960;2023-01-09T13:36:52;11.25;;;2.70;;
77612;SDS011;66777;52.282;5.960;2023-01-09T13:39:26;13.45;;;2.70;;
77612;SDS011;66777;52.282;5.960;2023-01-09T13:42:04;10.75;;;2.58;;
77612;SDS011;66777;52.282;5.960;2023-01-09T13:44:54;9.93;;;2.40;;
77612;SDS011;66777;52.282;5.960;2023-01-09T13:47:32;13.65;;;2.65;;
77612;SDS011;66777;52.282;5.960;2023-01-09T13:50:20;9.52;;;2.25;;
77612;SDS011;66777;52.282;5.960;2023-01-09T13:52:50;8.70;;;2.22;;
77612;SDS011;66777;52.282;5.960;2023-01-09T14:08:27;7.50;;;2.05;;
77612;SDS011;66777;52.282;5.960;2023-01-09T14:10:58;14.23;;;2.05;;
77612;SDS011;66777;52.282;5.960;2023-01-09T14:13:26;11.38;;;1.98;;
77612;SDS011;66777;52.282;5.960;2023-01-09T14:18:38;15.60;;;2.30;;
77612;SDS011;66777;52.282;5.960;2023-01-09T14:21:19;10.40;;;2.65;;
77612;SDS011;66777;52.282;5.960;2023-01-09T14:23:50;8.63;;;2.28;;
77612;SDS011;66777;52.282;5.960;2023-01-09T14:26:41;11.82;;;2.40;;
77612;SDS011;66777;52.282;5.960;2023-01-09T14:32:35;8.10;;;2.03;;
77612;SDS011;66777;52.282;5.960;2023-01-09T14:37:21;13.73;;;2.85;;
77612;SDS011;66777;52.282;5.960;2023-01-09T14:39:48;10.13;;;2.22;;
77612;SDS011;66777;52.282;5.960;2023-01-09T14:42:17;12.23;;;2.75;;
77612;SDS011;66777;52.282;5.960;2023-01-09T14:53:03;12.30;;;2.67;;
77612;SDS011;66777;52.282;5.960;2023-01-09T14:55:35;7.28;;;2.05;;
77612;SDS011;66777;52.282;5.960;2023-01-09T14:58:27;12.30;;;2.58;;
77612;SDS011;66777;52.282;5.960;2023-01-09T15:03:23;9.73;;;1.90;;
77612;SDS011;66777;52.282;5.960;2023-01-09T15:05:52;16.27;;;2.55;;
77612;SDS011;66777;52.282;5.960;2023-01-09T15:08:21;12.52;;;2.33;;
77612;SDS011;66777;52.282;5.960;2023-01-09T15:10:50;14.18;;;3.13;;
77612;SDS011;66777;52.282;5.960;2023-01-09T15:13:21;8.40;;;2.13;;
77612;SDS011;66777;52.282;5.960;2023-01-09T15:16:04;8.40;;;2.40;;
77612;SDS011;66777;52.282;5.960;2023-01-09T15:18:31;14.43;;;2.35;;
77612;SDS011;66777;52.282;5.960;2023-01-09T15:21:04;19.90;;;2.95;;
77612;SDS011;66777;52.282;5.960;2023-01-09T15:23:30;11.75;;;2.88;;
77612;SDS011;66777;52.282;5.960;2023-01-09T15:25:56;22.60;;;2.72;;
77612;SDS011;66777;52.282;5.960;2023-01-09T15:28:38;13.35;;;2.60;;
77612;SDS011;66777;52.282;5.960;2023-01-09T15:31:10;16.48;;;3.38;;
77612;SDS011;66777;52.282;5.960;2023-01-09T15:33:39;16.20;;;3.25;;
77612;SDS011;66777;52.282;5.960;2023-01-09T15:36:10;15.10;;;2.92;;
77612;SDS011;66777;52.282;5.960;2023-01-09T15:38:41;12.30;;;2.75;;
77612;SDS011;66777;52.282;5.960;2023-01-09T15:41:09;11.75;;;2.25;;
77612;SDS011;66777;52.282;5.960;2023-01-09T15:43:40;16.95;;;2.63;;
77612;SDS011;66777;52.282;5.960;2023-01-09T15:46:08;13.05;;;2.42;;
77612;SDS011;66777;52.282;5.960;2023-01-09T15:48:35;12.73;;;2.30;;
77612;SDS011;66777;52.282;5.960;2023-01-09T15:51:06;11.35;;;2.67;;
77612;SDS011;66777;52.282;5.960;2023-01-09T15:53:34;18.55;;;2.72;;
77612;SDS011;66777;52.282;5.960;2023-01-09T15:56:21;15.38;;;2.35;;
77612;SDS011;66777;52.282;5.960;2023-01-09T15:58:55;13.57;;;3.03;;
77612;SDS011;66777;52.282;5.960;2023-01-09T16:01:36;15.77;;;3.15;;
77612;SDS011;66777;52.282;5.960;2023-01-09T16:04:08;9.50;;;2.67;;
77612;SDS011;66777;52.282;5.960;2023-01-09T16:06:37;12.77;;;2.53;;
77612;SDS011;66777;52.282;5.960;2023-01-09T16:09:15;8.80;;;2.20;;
77612;SDS011;66777;52.282;5.960;2023-01-09T16:11:47;16.17;;;2.50;;
77612;SDS011;66777;52.282;5.960;2023-01-09T16:14:24;12.02;;;2.53;;
77612;SDS011;66777;52.282;5.960;2023-01-09T16:16:59;12.90;;;2.50;;
77612;SDS011;66777;52.282;5.960;2023-01-09T16:22:22;11.07;;;2.00;;
77612;SDS011;66777;52.282;5.960;2023-01-09T16:24:49;18.75;;;2.63;;
77612;SDS011;66777;52.282;5.960;2023-01-09T16:27:28;9.20;;;2.17;;
77612;SDS011;66777;52.282;5.960;2023-01-09T16:30:01;12.20;;;2.38;;
77612;SDS011;66777;52.282;5.960;2023-01-09T16:32:30;8.57;;;2.05;;
77612;SDS011;66777;52.282;5.960;2023-01-09T16:34:58;13.10;;;2.05;;
77612;SDS011;66777;52.282;5.960;2023-01-09T16:37:26;13.20;;;2.60;;
77612;SDS011;66777;52.282;5.960;2023-01-09T16:42:30;13.07;;;2.33;;
77612;SDS011;66777;52.282;5.960;2023-01-09T16:45:15;9.80;;;2.22;;